Flight Track Log - Related Links

Times and Time Zones

All times are in EDT time to prevent confusion due to time zone crossing. See the EJA696 flight status page for this flight to view local times or setup timezone preferences in your user account.

Time Position Orientation Groundspeed Altitude Reporting Facility
EDT Latitude Longitude Course Direction KTS MPH feet Rate Location/Type
Tue 01:28:51 PM 30.1806 -96.3558 149° Southeast 203 234 41,000  Level Houston Center
Tue 01:29:53 PM 30.2183 -96.3181 41° Northeast 212 244 3,100 -18,097 Descending Houston Center
Tue 01:30:55 PM 30.2614 -96.2897 30° Northeast 182 209 3,600 1,500 Climbing Houston Center
Tue 01:31:57 PM 30.3133 -96.2436 37° Northeast 223 257 6,200 1,659 Climbing Houston Center
Tue 01:32:58 PM 30.3728 -96.1867 40° Northeast 263 303 7,000 1,122 Climbing Houston Center
Tue 01:34:00 PM 30.4461 -96.1194 38° Northeast 281 323 8,500 968 Climbing Houston Center
Tue 01:35:02 PM 30.5078 -96.0631 38° Northeast 282 325 9,000 242 Climbing Houston Center
Tue 01:36:04 PM 30.5542 -96.0025 48° Northeast 302 348 9,000  Level Houston Center
Tue 01:37:06 PM 30.5925 -95.9253 60° Northeast 283 326 9,000 341 Level Houston Center
Tue 01:38:07 PM 30.6375 -95.8311 61° Northeast 279 321 9,700 976 Climbing Houston Center
Tue 01:39:09 PM 30.6728 -95.7572 61° Northeast 268 308 11,000 1,210 Climbing Houston Center
Tue 01:40:11 PM 30.7117 -95.6678 63° Northeast 295 339 12,200 1,016 Climbing Houston Center
Tue 01:41:13 PM 30.7556 -95.5753 61° Northeast 320 368 13,100 1,500 Climbing Houston Center
Tue 01:42:15 PM 30.8017 -95.4817 60° Northeast 331 381 15,300 2,000 Climbing Houston Center
Tue 01:43:16 PM 30.8453 -95.3911 61° Northeast 324 373 17,200 1,902 Climbing Houston Center
Tue 01:44:18 PM 30.8989 -95.2797 61° Northeast 326 375 19,200 1,790 Climbing Houston Center
Tue 01:45:20 PM 30.9439 -95.1842 61° Northeast 333 383 20,900 1,500 Climbing Houston Center
Tue 01:46:22 PM 30.9906 -95.0842 61° Northeast 344 396 22,300 1,355 Climbing Houston Center
Tue 01:47:24 PM 31.0383 -94.9819 61° Northeast 356 410 23,700 1,366 Climbing Houston Center
Tue 01:48:25 PM 31.0858 -94.8800 61° Northeast 358 412 25,100 1,317 Climbing Houston Center
Tue 01:49:27 PM 31.1383 -94.7692 61° Northeast 371 427 26,400 968 Climbing Houston Center
Tue 01:50:29 PM 31.1647 -94.6392 77° East 383 441 27,100 726 Climbing Houston Center
Tue 01:51:31 PM 31.1722 -94.5156 86° East 390 449 27,900 774 Climbing Houston Center
Tue 01:52:33 PM 31.1781 -94.3919 87° East 386 444 28,700 780 Climbing Houston Center
Tue 01:53:34 PM 31.1850 -94.2653 86° East 391 450 29,500 829 Climbing Houston Center
Tue 01:54:36 PM 31.1900 -94.1389 87° East 392 451 30,400 1,016 Climbing Houston Center
Tue 01:55:38 PM 31.1983 -93.9869 86° East 392 451 31,600 1,016 Climbing Houston Center
Tue 01:56:40 PM 31.2039 -93.8711 87° East 390 449 32,500 968 Climbing Houston Center
Tue 01:57:42 PM 31.2083 -93.7442 88° East 391 450 33,600 1,016 Climbing Houston Center
Tue 01:58:44 PM 31.2144 -93.6172 87° East 392 451 34,600 1,024 Climbing Houston Center
Tue 01:59:45 PM 31.2203 -93.4903 87° East 392 451 35,700 1,024 Climbing Houston Center
Tue 02:00:47 PM 31.2253 -93.3631 87° East 392 451 36,700 1,161 Climbing Houston Center
Tue 02:01:49 PM 31.2319 -93.2125 87° East 388 447 38,100 1,113 Climbing Houston Center
Tue 02:02:51 PM 31.2364 -93.0881 88° East 385 443 39,000 435 Climbing Houston Center
Tue 02:03:53 PM 31.2414 -92.9608 87° East 394 453 39,000  Level Houston Center
Tue 02:04:54 PM 31.2461 -92.8247 88° East 411 473 39,000  Level Houston Center
Tue 02:05:56 PM 31.2514 -92.6906 87° East 414 476 39,000  Level Houston Center
Tue 02:06:58 PM 31.2589 -92.5539 86° East 419 482 39,000  Level Houston Center
Tue 02:08:00 PM 31.3011 -92.4208 70° East 436 502 39,000 774 Level Houston Center
Tue 02:09:02 PM 31.3500 -92.2658 70° East 425 489 40,600 976 Climbing Houston Center
Tue 02:10:03 PM 31.3903 -92.1464 68° East 401 461 41,000 195 Climbing Houston Center
Tue 02:11:05 PM 31.4294 -92.0272 69° East 408 470 41,000  Level Houston Center
Tue 02:12:07 PM 31.4717 -91.9017 68° East 414 476 41,000  Level Houston Center
Tue 02:13:09 PM 31.5125 -91.7733 70° East 421 484 41,000  Level Houston Center
Tue 02:14:11 PM 31.5631 -91.6169 69° East 427 491 41,000  Level Houston Center
Tue 02:15:12 PM 31.6053 -91.4872 69° East 428 493 41,000  Level Houston Center
Tue 02:16:14 PM 31.6481 -91.3561 69° East 430 495 41,000  Level Houston Center
Tue 02:17:16 PM 31.6889 -91.2258 70° East 427 491 41,000  Level Houston Center
Tue 02:18:18 PM 31.7353 -91.0794 70° East 428 493 41,000  Level Houston Center
Tue 02:19:20 PM 31.7756 -90.9492 70° East 426 490 41,000  Level Houston Center
Tue 02:20:22 PM 31.8211 -90.8086 69° East 426 490 41,000  Level Houston Center
Tue 02:21:24 PM 31.8581 -90.6900 70° East 421 484 41,000  Level Houston Center
Tue 02:22:26 PM 31.8978 -90.5625 70° East 416 479 41,000  Level Houston Center
Tue 02:23:28 PM 31.9375 -90.4339 70° East 417 480 41,000  Level Houston Center
Tue 02:24:30 PM 31.9775 -90.3064 70° East 415 478 41,000  Level Houston Center
Tue 02:25:32 PM 32.0258 -90.1522 70° East 416 479 41,000  Level Houston Center
Tue 02:26:34 PM 32.0647 -90.0250 70° East 413 475 41,000  Level Houston Center
Tue 02:27:36 PM 32.1042 -89.8956 70° East 418 481 41,000  Level Houston Center
Tue 02:28:38 PM 32.1428 -89.7714 70° East 414 476 41,000  Level Houston Center
Tue 02:29:50 PM 32.1853 -89.6161 72° East 410 472 41,000  Level Memphis Center
Tue 02:30:50 PM 32.2242 -89.4906 70° East 410 472 41,000  Level Memphis Center
Tue 02:31:50 PM 32.2650 -89.3622 69° East 410 472 41,000  Level Memphis Center
Tue 02:32:50 PM 32.3036 -89.2342 70° East 410 472 41,000  Level Memphis Center
Tue 02:33:50 PM 32.3442 -89.1058 69° East 410 472 41,000  Level Memphis Center
Tue 02:34:50 PM 32.3803 -88.9797 71° East 410 472 41,000  Level Memphis Center
Tue 02:35:50 PM 32.4206 -88.8486 70° East 410 472 41,000  Level Memphis Center
Tue 02:36:50 PM 32.4586 -88.7200 71° East 410 472 41,000  Level Memphis Center
Tue 02:37:50 PM 32.4967 -88.5936 70° East 410 472 41,000  Level Memphis Center
Tue 02:40:06 PM 32.5856 -88.2886 71° East 404 465 41,000  Level Atlanta Center
Tue 02:41:06 PM 32.6233 -88.1597 71° East 404 465 41,000  Level Atlanta Center
Tue 02:42:06 PM 32.6608 -88.0308 71° East 404 465 41,000  Level Atlanta Center
Tue 02:43:06 PM 32.6986 -87.8967 71° East 409 471 41,000  Level Atlanta Center
Tue 02:44:06 PM 32.7339 -87.7700 72° East 409 471 41,000  Level Atlanta Center
Tue 02:45:06 PM 32.7669 -87.6428 73° East 409 471 41,000  Level Atlanta Center
Tue 02:46:06 PM 32.8058 -87.5161 70° East 409 471 41,000  Level Atlanta Center
Tue 02:47:06 PM 32.8408 -87.3914 72° East 402 463 41,000  Level Atlanta Center
Tue 02:48:06 PM 32.8861 -87.2569 68° East 407 468 41,000  Level Atlanta Center
Tue 02:49:06 PM 32.9119 -87.1417 75° East 395 455 41,000  Level Atlanta Center
Tue 02:50:06 PM 32.9442 -87.0189 73° East 390 449 41,000  Level Atlanta Center
Tue 02:51:06 PM 32.9806 -86.8939 71° East 395 455 41,000  Level Atlanta Center
Tue 02:52:06 PM 33.0147 -86.7711 72° East 395 455 41,000  Level Atlanta Center
Tue 02:53:06 PM 33.0486 -86.6458 72° East 388 447 41,000  Level Atlanta Center
Tue 02:54:06 PM 33.0825 -86.5181 72° East 390 449 41,000  Level Atlanta Center
Tue 02:55:06 PM 33.1161 -86.4000 71° East 390 449 41,000  Level Atlanta Center
Tue 02:56:06 PM 33.1478 -86.2767 73° East 387 445 41,000  Level Atlanta Center
Tue 02:57:06 PM 33.1811 -86.1633 71° East 372 428 41,000  Level Atlanta Center
Tue 02:58:06 PM 33.2125 -86.0350 74° East 377 434 41,000  Level Atlanta Center
Tue 02:59:06 PM 33.2478 -85.9142 71° East 380 437 41,000  Level Atlanta Center
Tue 03:00:06 PM 33.2744 -85.8028 74° East 380 437 41,000  Level Atlanta Center
Tue 03:01:06 PM 33.3053 -85.6817 73° East 375 432 41,000  Level Atlanta Center
Tue 03:02:06 PM 33.3361 -85.5681 72° East 367 422 41,000  Level Atlanta Center
Tue 03:03:06 PM 33.3667 -85.4467 73° East 367 422 41,000  Level Atlanta Center
Tue 03:04:06 PM 33.4033 -85.3278 70° East 375 432 41,000  Level Atlanta Center
Tue 03:05:06 PM 33.4317 -85.2086 74° East 375 432 41,000  Level Atlanta Center
Tue 03:06:07 PM 33.4622 -85.0847 73° East 375 432 41,000  Level Atlanta Center
Tue 03:07:07 PM 33.4944 -84.9631 72° East 375 432 41,000  Level Atlanta Center
Tue 03:08:06 PM 33.5225 -84.8436 74° East 375 432 41,000  Level Atlanta Center
Tue 03:09:07 PM 33.5544 -84.7219 72° East 380 437 41,000 -550 Level Atlanta Center
Tue 03:10:06 PM 33.5842 -84.5925 75° East 374 430 39,900 -1,563 Descending Atlanta Center
Tue 03:11:06 PM 33.6181 -84.4878 69° East 374 430 37,900 -1,736 Descending Atlanta Center
Tue 03:12:07 PM 33.6456 -84.3708 74° East 368 423 36,400 -1,450 Descending Atlanta Center
Tue 03:13:06 PM 33.6792 -84.2558 71° East 362 417 35,000 -706 Descending Atlanta Center
Tue 03:14:06 PM 33.7150 -84.1236 72° East 370 426 35,000  Level Atlanta Center
Tue 03:15:06 PM 33.7525 -84.0014 70° East 375 432 35,000  Level Atlanta Center
Tue 03:16:06 PM 33.7878 -83.8839 70° East 375 432 35,000  Level Atlanta Center
Tue 03:17:06 PM 33.8231 -83.7611 71° East 380 437 35,000 -450 Level Atlanta Center
Tue 03:18:06 PM 33.8583 -83.6411 70° East 380 437 34,100 -1,000 Descending Atlanta Center
Tue 03:19:06 PM 33.8869 -83.5158 75° East 388 447 33,000 -550 Descending Atlanta Center
Tue 03:20:06 PM 33.9200 -83.3953 72° East 382 440 33,000 -600 Level Atlanta Center
Tue 03:21:06 PM 33.9547 -83.2700 71° East 387 445 31,800 -1,000 Descending Atlanta Center
Tue 03:23:06 PM 34.0197 -83.0264 72° East 382 440 30,000 -667 Descending Atlanta Center
Tue 03:24:06 PM 34.0542 -82.9031 71° East 382 440 29,800 -700 Descending Atlanta Center
Tue 03:25:06 PM 34.0864 -82.7897 71° East 387 445 28,600 -1,350 Descending Atlanta Center
Tue 03:26:06 PM 34.1206 -82.6611 72° East 387 445 27,100 -1,438 Descending Atlanta Center
Tue 03:27:07 PM 34.1733 -82.5475 61° Northeast 387 445 25,700 -1,450 Descending Atlanta Center
Tue 03:28:06 PM 34.2408 -82.4331 54° Northeast 392 451 24,200 -857 Descending Atlanta Center
Tue 03:29:06 PM 34.3039 -82.3189 56° Northeast 405 466 24,000 -100 Descending Atlanta Center
Tue 03:30:06 PM 34.3669 -82.2067 56° Northeast 405 466 24,000 -300 Level Atlanta Center
Tue 03:31:06 PM 34.4281 -82.0997 55° Northeast 405 466 23,400 -950 Descending Atlanta Center
Tue 03:32:06 PM 34.4908 -81.9847 56° Northeast 405 466 22,100 -1,550 Descending Atlanta Center
Tue 03:33:06 PM 34.5556 -81.8672 56° Northeast 393 452 20,300 -2,150 Descending Atlanta Center
Tue 03:34:06 PM 34.6122 -81.7647 56° Northeast 378 435 17,800 -2,673 Descending Atlanta Center
Tue 03:34:47 PM 34.6464 -81.7033 56° Northeast 347 399 15,800 -2,667 Descending Atlanta Center
Tue 03:35:54 PM 34.7028 -81.5981 57° Northeast 309 356 13,000 -1,781 Descending Atlanta Center
Tue 03:36:55 PM 34.7389 -81.5186 61° Northeast 256 295 12,000 -545 Descending Atlanta Center
Tue 03:37:55 PM 34.7642 -81.4269 71° East 292 336 11,900 -893 Descending Atlanta Center
Tue 03:38:56 PM 34.7892 -81.3325 72° East 296 341 10,200 -1,574 Descending Atlanta Center
Tue 03:39:57 PM 34.8103 -81.2458 73° East 274 315 8,700 -1,525 Descending Atlanta Center
Tue 03:40:58 PM 34.8350 -81.1514 72° East 267 307 7,100 -1,547 Descending Atlanta Center
Tue 03:42:05 PM 34.8581 -81.0619 73° East 255 293 5,400 -1,031 Descending Atlanta Center
Tue 03:43:06 PM 34.8792 -80.9853 71° East 248 285 4,900 -942 Descending Atlanta Center
Tue 03:44:06 PM 34.9000 -80.9061 72° East 246 283 3,500 -891 Descending Atlanta Center
Tue 03:45:14 PM 34.9211 -80.8317 71° East 203 234 3,000 -441 Descending Atlanta Center

Login

Don't have an account? Register now (free) for customized features, flight alerts, and more!